createdAt,value
2023-01-19T00:44:10.076Z,99347.89
2023-01-19T00:46:36.839Z,99351.73
2023-01-19T00:49:03.647Z,99340.68
2023-01-19T00:51:30.287Z,99327.86
2023-01-19T00:53:56.957Z,99332.35
2023-01-19T00:56:23.715Z,99337.27
2023-01-19T00:58:50.949Z,99338.42
2023-01-19T01:01:17.813Z,99334.96
2023-01-19T01:03:44.569Z,99331.91
2023-01-19T01:06:11.258Z,99326.45
2023-01-19T01:08:37.975Z,99326.48
2023-01-19T01:11:04.955Z,99325.56
2023-01-19T01:13:31.922Z,99331.06
2023-01-19T01:15:58.880Z,99333.64
2023-01-19T01:18:26.326Z,99340.40
2023-01-19T01:20:55.250Z,99346.83
2023-01-19T01:23:23.066Z,99352.48
2023-01-19T01:25:49.826Z,99355.45
2023-01-19T01:28:16.508Z,99360.25
2023-01-19T01:30:44.064Z,99365.48
2023-01-19T01:33:11.919Z,99375.59
2023-01-19T01:35:38.567Z,99380.83
2023-01-19T01:38:05.379Z,99381.96
2023-01-19T01:40:32.062Z,99379.52
2023-01-19T01:42:59.083Z,99369.77
2023-01-19T01:45:40.278Z,99375.60
2023-01-19T01:48:25.547Z,99383.46
2023-01-19T01:51:13.964Z,99383.77
2023-01-19T01:53:40.594Z,99385.44
2023-01-19T01:56:09.226Z,99388.17
2023-01-19T01:58:36.033Z,99388.73
2023-01-19T02:01:21.484Z,99396.41
2023-01-19T02:03:48.259Z,99399.78
2023-01-19T02:06:15.006Z,99397.19
2023-01-19T02:09:13.134Z,99381.69
2023-01-19T02:11:58.395Z,99375.33
2023-01-19T02:14:25.067Z,99386.38
2023-01-19T02:16:51.780Z,99392.32
2023-01-19T02:19:24.410Z,99391.99
2023-01-19T02:22:06.559Z,99396.49
2023-01-19T02:24:33.463Z,99396.06
2023-01-19T02:27:00.214Z,99393.58
2023-01-19T02:29:26.852Z,99388.19
2023-01-19T02:31:55.630Z,99381.23
2023-01-19T02:34:22.766Z,99389.86
2023-01-19T02:36:52.618Z,99383.70
2023-01-19T02:39:20.788Z,99383.45
2023-01-19T02:41:50.887Z,99373.33
2023-01-19T02:44:17.524Z,99363.63
2023-01-19T02:46:44.392Z,99377.45
2023-01-19T02:49:11.027Z,99390.66
2023-01-19T02:51:37.691Z,99379.65
2023-01-19T02:54:36.872Z,99372.04
2023-01-19T02:57:14.308Z,99378.70
2023-01-19T02:59:57.701Z,99390.55
2023-01-19T03:02:34.712Z,99395.92
2023-01-19T03:05:33.523Z,99395.70
2023-01-19T03:08:18.955Z,99391.41
2023-01-19T03:10:45.640Z,99400.89
2023-01-19T03:13:31.095Z,99399.98
2023-01-19T03:16:01.579Z,99391.22
2023-01-19T03:18:28.989Z,99385.14
2023-01-19T03:20:57.079Z,99392.92
2023-01-19T03:23:25.444Z,99398.80
2023-01-19T03:25:52.179Z,99404.56
2023-01-19T03:28:19.585Z,99404.86
2023-01-19T03:30:50.493Z,99403.58
2023-01-19T03:33:27.432Z,99400.23
2023-01-19T03:35:56.977Z,99393.00
2023-01-19T03:38:26.694Z,99393.89
2023-01-19T03:40:55.828Z,99399.87
2023-01-19T03:43:22.538Z,99402.13
2023-01-19T03:45:49.210Z,99394.17
2023-01-19T03:48:16.135Z,99402.52
2023-01-19T03:50:42.937Z,99403.98
2023-01-19T03:53:11.593Z,99409.00
2023-01-19T03:55:39.888Z,99403.67
2023-01-19T06:35:55.615Z,99315.17
2023-01-19T06:38:22.372Z,99306.54
2023-01-19T06:40:54.152Z,99297.90
2023-01-19T06:43:20.936Z,99287.42
2023-01-19T06:45:47.802Z,99282.48
2023-01-19T06:48:14.538Z,99272.12
2023-01-19T06:50:41.583Z,99265.73
2023-01-19T06:53:08.518Z,99264.98
2023-01-19T06:55:36.525Z,99268.10
2023-01-19T06:58:03.308Z,99264.39
2023-01-19T07:00:30.160Z,99269.33
2023-01-19T07:02:56.809Z,99280.73
2023-01-19T07:05:24.496Z,99291.63
2023-01-19T07:07:55.082Z,99295.17
2023-01-19T07:10:22.181Z,99298.80
2023-01-19T07:12:49.095Z,99309.40
2023-01-19T07:15:19.545Z,99300.98
2023-01-19T07:17:46.489Z,99299.60
2023-01-19T07:20:14.356Z,99301.98
2023-01-19T07:22:41.851Z,99303.59
2023-01-19T07:25:08.983Z,99295.48
2023-01-19T07:27:35.752Z,99290.77
2023-01-19T07:30:02.620Z,99290.78
2023-01-19T07:32:29.362Z,99292.57
2023-01-19T07:34:56.143Z,99285.29
2023-01-19T07:37:23.014Z,99286.20
2023-01-19T07:39:49.838Z,99294.23
2023-01-19T07:42:16.543Z,99299.82
2023-01-19T07:44:43.225Z,99297.04
2023-01-19T07:47:12.805Z,99303.20
2023-01-19T07:49:39.783Z,99301.39
2023-01-19T07:52:06.533Z,99295.85
2023-01-19T07:54:33.692Z,99297.39
2023-01-19T07:57:03.269Z,99297.86
2023-01-19T07:59:31.070Z,99300.46
2023-01-19T08:01:59.550Z,99297.19
2023-01-19T08:04:27.337Z,99292.00
2023-01-19T08:06:54.137Z,99297.97
2023-01-19T08:09:21.087Z,99293.80
2023-01-19T08:11:47.854Z,99290.04
2023-01-19T08:14:14.499Z,99302.35
2023-01-19T08:16:41.147Z,99310.86
2023-01-19T08:19:08.066Z,99319.55
2023-01-19T08:21:36.107Z,99323.13
2023-01-19T08:24:02.985Z,99336.02
2023-01-19T08:26:34.467Z,99335.89
2023-01-19T08:29:02.297Z,99334.20
2023-01-19T08:31:29.202Z,99326.04
2023-01-19T08:33:55.930Z,99320.35
2023-01-19T08:36:23.815Z,99325.75
2023-01-19T08:38:50.780Z,99336.33
2023-01-19T08:41:17.600Z,99345.39
2023-01-19T08:43:45.493Z,99347.55
2023-01-19T08:46:12.355Z,99339.44
2023-01-19T08:48:40.016Z,99339.88
2023-01-19T08:51:06.930Z,99339.00
2023-01-19T08:53:34.729Z,99337.77
2023-01-19T08:56:02.282Z,99335.02
2023-01-19T08:58:29.528Z,99333.16
2023-01-19T09:00:56.346Z,99333.63
2023-01-19T09:03:23.227Z,99340.90
2023-01-19T09:17:06.537Z,99324.45
2023-01-19T09:19:35.043Z,99319.48
2023-01-19T09:22:01.915Z,99306.79
2023-01-19T09:24:28.786Z,99307.02
2023-01-19T09:26:55.916Z,99306.51
2023-01-19T09:29:22.869Z,99306.59
2023-01-19T09:31:49.744Z,99304.93
2023-01-19T09:34:16.445Z,99297.88
2023-01-19T09:36:43.119Z,99298.43
2023-01-19T09:39:11.191Z,99290.63
2023-01-19T09:41:38.644Z,99285.32
2023-01-19T09:44:05.680Z,99276.14
2023-01-19T09:46:39.108Z,99271.41
2023-01-19T09:49:33.737Z,99270.27
2023-01-19T09:52:00.521Z,99271.40
2023-01-19T09:54:35.934Z,99272.64
2023-01-19T09:57:02.593Z,99264.09
2023-01-19T09:59:30.177Z,99257.77
2023-01-19T10:02:07.974Z,99246.23
2023-01-19T10:04:41.950Z,99241.33
2023-01-19T10:07:14.055Z,99229.71
2023-01-19T10:10:07.935Z,99234.96
2023-01-19T10:12:46.109Z,99232.97
2023-01-19T10:15:18.529Z,99231.34
2023-01-19T10:17:48.359Z,99222.09
2023-01-19T10:20:19.669Z,99227.39
2023-01-19T10:22:47.883Z,99220.09
2023-01-19T10:25:18.451Z,99224.86
2023-01-19T10:27:46.452Z,99224.39
2023-01-19T10:30:27.783Z,99218.80
2023-01-19T10:32:54.444Z,99220.34
2023-01-19T10:35:24.338Z,99215.98
2023-01-19T10:38:01.459Z,99212.22
2023-01-19T10:40:44.264Z,99212.98
2023-01-19T10:43:43.428Z,99210.75
2023-01-19T10:46:22.266Z,99199.14
2023-01-19T10:48:50.758Z,99194.86
2023-01-19T10:51:17.802Z,99188.67
2023-01-19T10:54:02.346Z,99184.91
2023-01-19T10:56:34.866Z,99180.17
2023-01-19T10:59:03.170Z,99180.63
2023-01-19T11:01:31.187Z,99179.16
2023-01-19T11:04:05.663Z,99173.66
2023-01-19T11:06:33.066Z,99170.98
2023-01-19T11:09:19.837Z,99170.45
2023-01-19T11:11:48.774Z,99171.76
2023-01-19T11:14:18.948Z,99166.60
2023-01-19T11:16:47.351Z,99147.18
2023-01-19T11:19:24.845Z,99141.95
2023-01-19T11:21:51.646Z,99147.55
2023-01-19T11:24:18.384Z,99161.55
2023-01-19T11:26:48.110Z,99154.02
2023-01-19T11:29:22.811Z,99145.67
2023-01-19T11:31:49.746Z,99139.09
2023-01-19T11:34:37.497Z,99147.16
2023-01-19T11:37:06.302Z,99141.31
2023-01-19T11:39:45.585Z,99130.03
2023-01-19T11:42:13.053Z,99128.81
2023-01-19T11:44:47.107Z,99140.27
2023-01-19T11:47:17.300Z,99136.11
2023-01-19T11:49:44.610Z,99131.42
2023-01-19T11:52:17.359Z,99133.95
2023-01-19T11:54:52.240Z,99134.55
2023-01-19T11:57:20.172Z,99132.55
2023-01-19T11:59:47.194Z,99137.08
2023-01-19T12:02:43.497Z,99141.24
2023-01-19T12:17:14.178Z,99138.38
2023-01-19T12:19:55.011Z,99130.48
2023-01-19T12:22:22.563Z,99128.23
2023-01-19T12:24:53.157Z,99130.42
2023-01-19T12:27:26.311Z,99129.91
2023-01-19T12:29:53.891Z,99130.89
2023-01-19T12:32:32.635Z,99128.72
2023-01-19T12:34:59.568Z,99130.70
2023-01-19T12:37:41.817Z,99137.62
2023-01-19T12:40:23.931Z,99142.62
2023-01-19T12:43:00.132Z,99145.33
2023-01-19T12:45:34.722Z,99155.74
2023-01-19T12:48:02.396Z,99161.11
2023-01-19T12:50:32.096Z,99148.48
2023-01-19T12:52:59.914Z,99141.55
2023-01-19T12:55:39.143Z,99146.73
2023-01-19T12:58:28.039Z,99151.92
2023-01-19T13:01:26.968Z,99149.73
2023-01-19T13:04:09.363Z,99149.84
2023-01-19T13:06:56.014Z,99143.23
2023-01-19T13:09:30.925Z,99140.00
2023-01-19T13:12:30.297Z,99147.83
2023-01-19T13:15:28.997Z,99142.73
2023-01-19T13:17:55.850Z,99149.20
2023-01-19T13:20:27.521Z,99151.80
2023-01-19T13:23:15.546Z,99155.02
2023-01-19T13:25:42.495Z,99162.41
2023-01-19T13:28:10.040Z,99163.63
2023-01-19T13:30:37.327Z,99164.56
2023-01-19T13:33:09.470Z,99170.04
2023-01-19T13:35:36.097Z,99168.97
2023-01-19T13:38:02.773Z,99169.99
2023-01-19T13:40:36.978Z,99164.89
2023-01-19T13:43:03.727Z,99165.58
2023-01-19T13:45:34.635Z,99160.61
2023-01-19T13:48:04.634Z,99164.13
2023-01-19T13:50:33.322Z,99173.38
2023-01-19T13:53:00.502Z,99172.13
2023-01-19T13:55:28.974Z,99168.20
2023-01-19T13:57:55.934Z,99175.54
2023-01-19T14:00:23.773Z,99178.69
2023-01-19T14:03:00.443Z,99174.28
2023-01-19T14:05:30.373Z,99176.55
2023-01-19T14:08:01.040Z,99177.91
2023-01-19T14:10:27.866Z,99180.69
2023-01-19T14:13:01.830Z,99189.10
2023-01-19T14:15:29.396Z,99190.20
2023-01-19T14:18:14.390Z,99188.66
2023-01-19T14:20:41.793Z,99201.14
2023-01-19T14:23:37.281Z,99202.95
2023-01-19T14:26:04.099Z,99201.86
2023-01-19T14:28:42.283Z,99201.14
2023-01-19T14:31:27.627Z,99200.98
2023-01-19T14:33:55.392Z,99199.83
2023-01-19T14:36:22.087Z,99196.65
2023-01-19T14:38:49.882Z,99192.20
2023-01-19T14:41:35.451Z,99190.83
2023-01-19T14:44:02.364Z,99192.37
2023-01-19T14:46:29.140Z,99194.66
2023-01-19T14:49:00.809Z,99190.25
2023-01-19T14:51:27.444Z,99200.40
2023-01-19T14:53:57.350Z,99193.85
2023-01-19T14:56:44.289Z,99199.35
2023-01-19T14:59:15.356Z,99205.91
2023-01-19T15:01:42.270Z,99205.05
2023-01-19T15:04:09.399Z,99203.02
2023-01-19T15:06:39.325Z,99192.67
2023-01-19T15:09:06.023Z,99190.92
2023-01-19T15:11:33.879Z,99184.22
2023-01-19T15:14:01.146Z,99183.58
2023-01-19T15:16:28.955Z,99180.96
2023-01-19T15:18:55.708Z,99181.18
2023-01-19T15:21:28.982Z,99185.09
2023-01-19T15:23:55.833Z,99182.70
2023-01-19T15:26:24.596Z,99179.27
2023-01-19T15:28:51.955Z,99181.99
2023-01-19T15:31:20.633Z,99183.65
2023-01-19T15:33:47.458Z,99187.41
2023-01-19T15:36:17.022Z,99192.06
2023-01-19T15:38:44.713Z,99195.25
2023-01-19T15:41:15.542Z,99191.63
2023-01-19T15:43:42.392Z,99182.86
2023-01-19T15:46:09.393Z,99187.65
2023-01-19T15:48:36.021Z,99181.77
2023-01-19T15:51:02.967Z,99178.60
2023-01-19T15:53:30.539Z,99184.14
2023-01-19T15:55:57.310Z,99185.38
2023-01-19T15:58:24.522Z,99186.55
2023-01-19T16:00:55.789Z,99181.76
2023-01-19T16:03:23.445Z,99181.54
2023-01-19T16:05:50.128Z,99185.92
2023-01-19T16:08:16.828Z,99187.25
2023-01-19T16:10:43.664Z,99193.20
2023-01-19T16:13:10.771Z,99192.12
2023-01-19T16:15:38.164Z,99196.20
2023-01-19T16:18:05.128Z,99199.42
2023-01-19T16:20:31.833Z,99209.05
2023-01-19T16:23:09.649Z,99202.15
2023-01-19T16:25:40.749Z,99202.67
2023-01-19T16:28:08.260Z,99196.81
2023-01-19T16:30:35.052Z,99194.77
2023-01-19T16:33:01.718Z,99192.21
2023-01-19T16:35:28.455Z,99195.88
2023-01-19T16:37:55.130Z,99193.09
2023-01-19T16:40:21.923Z,99188.56
2023-01-19T16:42:48.639Z,99193.23
2023-01-19T16:45:15.390Z,99191.40
2023-01-19T16:47:42.154Z,99190.95
2023-01-19T16:50:11.395Z,99190.42
2023-01-19T16:52:38.699Z,99195.64
2023-01-19T16:55:09.354Z,99195.53
2023-01-19T16:57:38.910Z,99194.04
2023-01-19T17:00:09.388Z,99195.32
2023-01-19T17:02:36.628Z,99191.77
2023-01-19T17:05:03.799Z,99187.59
2023-01-19T17:07:30.567Z,99186.20
2023-01-19T17:09:57.560Z,99191.15
2023-01-19T17:12:24.388Z,99196.34
2023-01-19T17:14:51.059Z,99199.45
2023-01-19T17:17:17.702Z,99197.87
2023-01-19T17:19:45.194Z,99201.27
2023-01-19T17:22:12.945Z,99201.69
2023-01-19T17:24:42.562Z,99205.55
2023-01-19T17:27:09.672Z,99201.46
2023-01-19T17:29:36.737Z,99200.06
2023-01-19T17:32:03.772Z,99199.54
2023-01-19T17:34:30.425Z,99198.02
2023-01-19T17:37:02.846Z,99191.59
2023-01-19T17:39:29.712Z,99194.55
2023-01-19T17:41:56.495Z,99197.27
2023-01-19T17:44:23.289Z,99195.38
2023-01-19T17:46:50.060Z,99193.40
2023-01-19T17:49:16.890Z,99193.92
2023-01-19T17:51:43.711Z,99196.76
2023-01-19T17:54:11.297Z,99199.92
2023-01-19T17:56:38.960Z,99193.63
2023-01-19T17:59:07.911Z,99192.45
2023-01-19T18:01:37.716Z,99193.20
2023-01-19T18:04:04.931Z,99192.83
2023-01-19T18:06:31.719Z,99195.62
2023-01-19T18:08:59.338Z,99197.30
2023-01-19T18:11:26.555Z,99195.55
2023-01-19T18:13:53.697Z,99197.96
2023-01-19T18:16:22.361Z,99196.14
2023-01-19T18:18:49.882Z,99192.77
2023-01-19T18:21:16.972Z,99196.45
2023-01-19T18:23:45.108Z,99194.70
2023-01-19T18:26:14.437Z,99197.95
2023-01-19T18:28:41.205Z,99196.09
2023-01-19T18:31:09.070Z,99199.88
2023-01-19T18:33:36.144Z,99199.42
2023-01-19T18:36:03.028Z,99197.06
2023-01-19T18:38:30.729Z,99199.21
2023-01-19T18:41:04.566Z,99196.95
2023-01-19T18:43:31.302Z,99198.80
2023-01-19T18:45:58.311Z,99201.05
2023-01-19T18:48:25.169Z,99202.54
2023-01-19T18:50:51.987Z,99202.44
2023-01-19T18:53:18.718Z,99208.95
2023-01-19T18:55:55.999Z,99202.59
2023-01-19T18:58:22.927Z,99201.19
2023-01-19T19:00:49.943Z,99199.16
2023-01-19T19:03:17.021Z,99202.81
2023-01-19T19:05:43.859Z,99202.23
2023-01-19T19:08:10.806Z,99205.96
2023-01-19T19:10:37.687Z,99210.88
2023-01-19T19:13:04.643Z,99210.58
2023-01-19T19:15:32.640Z,99206.13
2023-01-19T19:17:59.408Z,99206.13
2023-01-19T19:20:26.390Z,99207.08
2023-01-19T19:22:53.030Z,99206.45
2023-01-19T19:25:19.734Z,99212.27
2023-01-19T19:27:50.713Z,99214.41
2023-01-19T19:30:18.055Z,99215.46
2023-01-19T19:32:44.746Z,99212.40
2023-01-19T19:35:12.539Z,99211.20
2023-01-19T19:37:39.237Z,99210.61
2023-01-19T19:40:06.506Z,99215.15
2023-01-19T19:42:34.493Z,99212.73
2023-01-19T19:45:01.246Z,99211.37
2023-01-19T19:47:30.386Z,99215.86
2023-01-19T19:49:59.116Z,99221.16
2023-01-19T19:52:27.675Z,99227.48
2023-01-19T22:43:05.525Z,99364.14
2023-01-19T22:45:32.237Z,99369.04
2023-01-19T22:47:58.890Z,99367.80
2023-01-19T22:50:25.642Z,99368.51
2023-01-19T22:52:55.523Z,99366.27
2023-01-19T22:55:22.233Z,99366.39
2023-01-19T22:57:48.858Z,99369.52
2023-01-19T23:00:15.955Z,99372.30
2023-01-19T23:02:42.621Z,99376.14
2023-01-19T23:05:09.483Z,99375.25
2023-01-19T23:07:36.148Z,99369.38
2023-01-19T23:10:02.822Z,99377.40
2023-01-19T23:12:29.474Z,99377.64
2023-01-19T23:14:56.132Z,99384.60
2023-01-19T23:17:22.814Z,99387.88
2023-01-19T23:19:49.503Z,99388.60
2023-01-19T23:22:16.335Z,99382.11
2023-01-19T23:24:42.970Z,99382.08
2023-01-19T23:27:11.741Z,99383.86
2023-01-19T23:29:38.404Z,99382.63
2023-01-19T23:32:05.087Z,99385.96
2023-01-19T23:34:31.725Z,99394.73
2023-01-19T23:36:58.466Z,99392.41
2023-01-19T23:39:25.142Z,99392.79
2023-01-19T23:41:51.864Z,99395.72
2023-01-19T23:44:18.664Z,99394.80
2023-01-19T23:46:45.826Z,99396.48
2023-01-19T23:49:13.103Z,99403.59
2023-01-19T23:51:40.009Z,99401.33
2023-01-19T23:54:06.660Z,99404.35
2023-01-19T23:56:34.797Z,99400.20
2023-01-19T23:59:03.080Z,99399.86
